sensor_id;sensor_type;location;lat;lon;timestamp;P1;durP1;ratioP1;P2;durP2;ratioP2
13967;SDS011;39536;52.198;9.920;2022-11-04T00:01:55;6.20;;;5.60;;
13967;SDS011;39536;52.198;9.920;2022-11-04T00:04:23;6.50;;;5.80;;
13967;SDS011;39536;52.198;9.920;2022-11-04T00:06:50;5.67;;;4.73;;
13967;SDS011;39536;52.198;9.920;2022-11-04T00:09:18;4.60;;;4.20;;
13967;SDS011;39536;52.198;9.920;2022-11-04T00:11:46;5.23;;;4.73;;
13967;SDS011;39536;52.198;9.920;2022-11-04T00:14:30;5.13;;;4.67;;
13967;SDS011;39536;52.198;9.920;2022-11-04T00:16:59;5.47;;;4.17;;
13967;SDS011;39536;52.198;9.920;2022-11-04T00:19:43;4.77;;;4.37;;
13967;SDS011;39536;52.198;9.920;2022-11-04T00:22:33;4.60;;;4.27;;
13967;SDS011;39536;52.198;9.920;2022-11-04T00:25:17;4.90;;;4.50;;
13967;SDS011;39536;52.198;9.920;2022-11-04T00:28:05;5.03;;;4.13;;
13967;SDS011;39536;52.198;9.920;2022-11-04T00:30:53;4.77;;;4.37;;
13967;SDS011;39536;52.198;9.920;2022-11-04T00:33:23;4.23;;;3.83;;
13967;SDS011;39536;52.198;9.920;2022-11-04T00:35:52;4.63;;;4.27;;
13967;SDS011;39536;52.198;9.920;2022-11-04T00:38:20;4.57;;;4.13;;
13967;SDS011;39536;52.198;9.920;2022-11-04T00:40:47;4.90;;;4.40;;
13967;SDS011;39536;52.198;9.920;2022-11-04T00:43:14;5.57;;;4.20;;
13967;SDS011;39536;52.198;9.920;2022-11-04T00:45:40;4.67;;;4.20;;
13967;SDS011;39536;52.198;9.920;2022-11-04T00:48:07;4.07;;;3.77;;
13967;SDS011;39536;52.198;9.920;2022-11-04T00:50:35;4.20;;;3.90;;
13967;SDS011;39536;52.198;9.920;2022-11-04T00:53:02;4.53;;;4.23;;
13967;SDS011;39536;52.198;9.920;2022-11-04T00:55:29;8.40;;;4.83;;
13967;SDS011;39536;52.198;9.920;2022-11-04T00:57:56;4.37;;;3.97;;
13967;SDS011;39536;52.198;9.920;2022-11-04T01:00:23;4.67;;;4.23;;
13967;SDS011;39536;52.198;9.920;2022-11-04T01:02:49;6.00;;;4.17;;
13967;SDS011;39536;52.198;9.920;2022-11-04T01:05:16;4.87;;;4.20;;
13967;SDS011;39536;52.198;9.920;2022-11-04T01:07:44;4.80;;;3.80;;
13967;SDS011;39536;52.198;9.920;2022-11-04T01:10:10;4.37;;;3.97;;
13967;SDS011;39536;52.198;9.920;2022-11-04T01:12:37;3.90;;;3.60;;
13967;SDS011;39536;52.198;9.920;2022-11-04T01:15:04;3.83;;;3.53;;
13967;SDS011;39536;52.198;9.920;2022-11-04T01:17:31;5.23;;;3.67;;
13967;SDS011;39536;52.198;9.920;2022-11-04T01:19:57;3.67;;;3.37;;
13967;SDS011;39536;52.198;9.920;2022-11-04T01:22:24;3.33;;;3.00;;
13967;SDS011;39536;52.198;9.920;2022-11-04T01:24:52;3.40;;;3.10;;
13967;SDS011;39536;52.198;9.920;2022-11-04T01:27:18;4.37;;;3.97;;
13967;SDS011;39536;52.198;9.920;2022-11-04T01:29:45;3.60;;;3.30;;
13967;SDS011;39536;52.198;9.920;2022-11-04T01:32:11;3.50;;;3.20;;
13967;SDS011;39536;52.198;9.920;2022-11-04T01:34:38;3.47;;;3.10;;
13967;SDS011;39536;52.198;9.920;2022-11-04T01:37:04;4.23;;;3.30;;
13967;SDS011;39536;52.198;9.920;2022-11-04T01:39:31;3.40;;;3.10;;
13967;SDS011;39536;52.198;9.920;2022-11-04T01:41:59;5.23;;;3.50;;
13967;SDS011;39536;52.198;9.920;2022-11-04T01:44:45;3.67;;;3.37;;
13967;SDS011;39536;52.198;9.920;2022-11-04T01:47:15;3.60;;;3.30;;
13967;SDS011;39536;52.198;9.920;2022-11-04T01:49:45;3.43;;;3.13;;
13967;SDS011;39536;52.198;9.920;2022-11-04T01:52:15;2.57;;;2.40;;
13967;SDS011;39536;52.198;9.920;2022-11-04T01:54:46;3.23;;;2.93;;
13967;SDS011;39536;52.198;9.920;2022-11-04T01:57:17;3.03;;;2.83;;
13967;SDS011;39536;52.198;9.920;2022-11-04T01:59:48;3.97;;;2.70;;
13967;SDS011;39536;52.198;9.920;2022-11-04T02:02:15;5.87;;;3.07;;
13967;SDS011;39536;52.198;9.920;2022-11-04T02:04:41;3.30;;;2.57;;
13967;SDS011;39536;52.198;9.920;2022-11-04T02:07:09;3.10;;;2.80;;
13967;SDS011;39536;52.198;9.920;2022-11-04T02:09:36;3.60;;;3.00;;
13967;SDS011;39536;52.198;9.920;2022-11-04T02:12:04;3.70;;;3.40;;
13967;SDS011;39536;52.198;9.920;2022-11-04T02:14:50;3.33;;;3.03;;
13967;SDS011;39536;52.198;9.920;2022-11-04T02:17:26;2.80;;;2.60;;
13967;SDS011;39536;52.198;9.920;2022-11-04T02:20:15;3.53;;;2.67;;
13967;SDS011;39536;52.198;9.920;2022-11-04T02:22:51;5.93;;;3.00;;
13967;SDS011;39536;52.198;9.920;2022-11-04T02:25:41;2.40;;;2.23;;
13967;SDS011;39536;52.198;9.920;2022-11-04T02:28:37;2.57;;;2.37;;
13967;SDS011;39536;52.198;9.920;2022-11-04T02:31:22;4.47;;;2.30;;
13967;SDS011;39536;52.198;9.920;2022-11-04T02:33:59;2.40;;;2.30;;
13967;SDS011;39536;52.198;9.920;2022-11-04T02:36:32;2.50;;;2.30;;
13967;SDS011;39536;52.198;9.920;2022-11-04T02:39:06;3.43;;;2.67;;
13967;SDS011;39536;52.198;9.920;2022-11-04T02:41:44;2.10;;;2.00;;
13967;SDS011;39536;52.198;9.920;2022-11-04T02:44:18;2.40;;;2.20;;
13967;SDS011;39536;52.198;9.920;2022-11-04T02:46:55;1.90;;;1.80;;
13967;SDS011;39536;52.198;9.920;2022-11-04T02:49:26;3.53;;;2.37;;
13967;SDS011;39536;52.198;9.920;2022-11-04T02:51:59;2.67;;;2.47;;
13967;SDS011;39536;52.198;9.920;2022-11-04T02:54:30;2.13;;;2.03;;
13967;SDS011;39536;52.198;9.920;2022-11-04T02:57:02;1.70;;;1.60;;
13967;SDS011;39536;52.198;9.920;2022-11-04T02:59:33;1.60;;;1.50;;
13967;SDS011;39536;52.198;9.920;2022-11-04T03:02:05;2.17;;;2.00;;
13967;SDS011;39536;52.198;9.920;2022-11-04T03:04:36;2.63;;;1.63;;
13967;SDS011;39536;52.198;9.920;2022-11-04T03:07:06;1.40;;;1.30;;
13967;SDS011;39536;52.198;9.920;2022-11-04T03:09:36;1.50;;;1.40;;
13967;SDS011;39536;52.198;9.920;2022-11-04T03:12:07;1.40;;;1.20;;
13967;SDS011;39536;52.198;9.920;2022-11-04T03:14:40;1.43;;;1.33;;
13967;SDS011;39536;52.198;9.920;2022-11-04T03:17:13;1.37;;;1.20;;
13967;SDS011;39536;52.198;9.920;2022-11-04T03:19:46;1.53;;;1.43;;
13967;SDS011;39536;52.198;9.920;2022-11-04T03:22:19;1.40;;;1.30;;
13967;SDS011;39536;52.198;9.920;2022-11-04T03:24:48;1.70;;;1.60;;
13967;SDS011;39536;52.198;9.920;2022-11-04T03:27:18;1.50;;;1.40;;
13967;SDS011;39536;52.198;9.920;2022-11-04T03:29:52;2.30;;;1.60;;
13967;SDS011;39536;52.198;9.920;2022-11-04T03:32:27;1.50;;;1.40;;
13967;SDS011;39536;52.198;9.920;2022-11-04T03:35:03;1.60;;;1.50;;
13967;SDS011;39536;52.198;9.920;2022-11-04T03:37:30;1.30;;;1.20;;
13967;SDS011;39536;52.198;9.920;2022-11-04T03:39:57;1.10;;;1.10;;
13967;SDS011;39536;52.198;9.920;2022-11-04T03:42:24;1.43;;;1.33;;
13967;SDS011;39536;52.198;9.920;2022-11-04T03:44:54;1.00;;;1.00;;
13967;SDS011;39536;52.198;9.920;2022-11-04T03:47:22;1.50;;;1.40;;
13967;SDS011;39536;52.198;9.920;2022-11-04T03:49:58;1.43;;;1.40;;
13967;SDS011;39536;52.198;9.920;2022-11-04T03:52:27;1.90;;;1.70;;
13967;SDS011;39536;52.198;9.920;2022-11-04T03:54:54;1.40;;;1.30;;
13967;SDS011;39536;52.198;9.920;2022-11-04T03:57:24;1.60;;;1.50;;
13967;SDS011;39536;52.198;9.920;2022-11-04T04:00:04;1.83;;;1.73;;
13967;SDS011;39536;52.198;9.920;2022-11-04T04:02:46;2.20;;;2.10;;
13967;SDS011;39536;52.198;9.920;2022-11-04T04:05:29;2.47;;;2.27;;
13967;SDS011;39536;52.198;9.920;2022-11-04T04:08:07;2.57;;;2.47;;
13967;SDS011;39536;52.198;9.920;2022-11-04T04:10:40;2.53;;;2.30;;
13967;SDS011;39536;52.198;9.920;2022-11-04T04:13:13;2.53;;;2.33;;
13967;SDS011;39536;52.198;9.920;2022-11-04T04:15:46;2.80;;;2.60;;
13967;SDS011;39536;52.198;9.920;2022-11-04T04:18:18;2.93;;;2.73;;
13967;SDS011;39536;52.198;9.920;2022-11-04T04:20:53;2.63;;;2.43;;
13967;SDS011;39536;52.198;9.920;2022-11-04T04:23:24;2.23;;;2.03;;
13967;SDS011;39536;52.198;9.920;2022-11-04T04:26:11;2.37;;;2.27;;
13967;SDS011;39536;52.198;9.920;2022-11-04T04:28:58;2.53;;;2.33;;
13967;SDS011;39536;52.198;9.920;2022-11-04T04:31:27;2.30;;;2.20;;
13967;SDS011;39536;52.198;9.920;2022-11-04T04:34:14;2.20;;;2.10;;
13967;SDS011;39536;52.198;9.920;2022-11-04T04:36:44;2.20;;;2.10;;
13967;SDS011;39536;52.198;9.920;2022-11-04T04:39:15;2.50;;;2.30;;
13967;SDS011;39536;52.198;9.920;2022-11-04T04:42:02;2.30;;;2.20;;
13967;SDS011;39536;52.198;9.920;2022-11-04T04:44:46;2.50;;;2.40;;
13967;SDS011;39536;52.198;9.920;2022-11-04T04:47:25;2.33;;;2.13;;
13967;SDS011;39536;52.198;9.920;2022-11-04T04:49:56;2.63;;;2.43;;
13967;SDS011;39536;52.198;9.920;2022-11-04T04:52:25;2.63;;;2.50;;
13967;SDS011;39536;52.198;9.920;2022-11-04T04:54:53;2.63;;;2.50;;
13967;SDS011;39536;52.198;9.920;2022-11-04T04:57:20;2.37;;;2.17;;
13967;SDS011;39536;52.198;9.920;2022-11-04T04:59:46;2.60;;;2.40;;
13967;SDS011;39536;52.198;9.920;2022-11-04T05:02:13;2.77;;;2.57;;
13967;SDS011;39536;52.198;9.920;2022-11-04T05:04:40;2.80;;;2.60;;
13967;SDS011;39536;52.198;9.920;2022-11-04T05:07:06;2.93;;;2.73;;
13967;SDS011;39536;52.198;9.920;2022-11-04T05:09:36;2.60;;;2.40;;
13967;SDS011;39536;52.198;9.920;2022-11-04T05:12:03;1.90;;;1.80;;
13967;SDS011;39536;52.198;9.920;2022-11-04T05:14:29;2.80;;;2.70;;
13967;SDS011;39536;52.198;9.920;2022-11-04T05:16:56;2.20;;;2.10;;
13967;SDS011;39536;52.198;9.920;2022-11-04T05:19:23;2.60;;;2.50;;
13967;SDS011;39536;52.198;9.920;2022-11-04T05:21:49;3.00;;;2.90;;
13967;SDS011;39536;52.198;9.920;2022-11-04T05:24:16;3.33;;;3.13;;
13967;SDS011;39536;52.198;9.920;2022-11-04T05:26:44;3.03;;;2.93;;
13967;SDS011;39536;52.198;9.920;2022-11-04T05:29:10;3.23;;;3.03;;
13967;SDS011;39536;52.198;9.920;2022-11-04T05:31:37;3.30;;;3.00;;
13967;SDS011;39536;52.198;9.920;2022-11-04T05:34:04;3.50;;;2.90;;
13967;SDS011;39536;52.198;9.920;2022-11-04T05:36:31;3.10;;;2.90;;
13967;SDS011;39536;52.198;9.920;2022-11-04T05:38:58;3.47;;;3.20;;
13967;SDS011;39536;52.198;9.920;2022-11-04T05:41:24;3.10;;;2.90;;
13967;SDS011;39536;52.198;9.920;2022-11-04T05:43:53;3.43;;;3.13;;
13967;SDS011;39536;52.198;9.920;2022-11-04T05:46:20;2.70;;;2.60;;
13967;SDS011;39536;52.198;9.920;2022-11-04T05:48:48;2.80;;;2.60;;
13967;SDS011;39536;52.198;9.920;2022-11-04T05:51:15;2.83;;;2.73;;
13967;SDS011;39536;52.198;9.920;2022-11-04T05:53:42;2.80;;;2.70;;
13967;SDS011;39536;52.198;9.920;2022-11-04T05:56:09;3.20;;;3.00;;
13967;SDS011;39536;52.198;9.920;2022-11-04T05:58:36;3.13;;;2.93;;
13967;SDS011;39536;52.198;9.920;2022-11-04T06:01:21;3.40;;;3.20;;
13967;SDS011;39536;52.198;9.920;2022-11-04T06:03:49;3.03;;;2.83;;
13967;SDS011;39536;52.198;9.920;2022-11-04T06:06:16;2.97;;;2.83;;
13967;SDS011;39536;52.198;9.920;2022-11-04T06:08:43;3.30;;;3.10;;
13967;SDS011;39536;52.198;9.920;2022-11-04T06:11:09;3.10;;;2.90;;
13967;SDS011;39536;52.198;9.920;2022-11-04T06:13:36;2.80;;;2.70;;
13967;SDS011;39536;52.198;9.920;2022-11-04T06:16:02;3.27;;;3.07;;
13967;SDS011;39536;52.198;9.920;2022-11-04T06:18:31;3.10;;;2.60;;
13967;SDS011;39536;52.198;9.920;2022-11-04T06:21:07;3.20;;;3.00;;
13967;SDS011;39536;52.198;9.920;2022-11-04T06:23:36;3.13;;;2.87;;
13967;SDS011;39536;52.198;9.920;2022-11-04T06:26:02;3.40;;;3.10;;
13967;SDS011;39536;52.198;9.920;2022-11-04T06:28:29;3.00;;;2.80;;
13967;SDS011;39536;52.198;9.920;2022-11-04T06:30:56;2.90;;;2.70;;
13967;SDS011;39536;52.198;9.920;2022-11-04T06:33:23;3.10;;;2.90;;
13967;SDS011;39536;52.198;9.920;2022-11-04T06:35:50;2.87;;;2.73;;
13967;SDS011;39536;52.198;9.920;2022-11-04T06:38:17;3.40;;;3.20;;
13967;SDS011;39536;52.198;9.920;2022-11-04T06:40:44;2.90;;;2.70;;
13967;SDS011;39536;52.198;9.920;2022-11-04T06:43:10;2.63;;;2.53;;
13967;SDS011;39536;52.198;9.920;2022-11-04T06:45:37;4.37;;;2.70;;
13967;SDS011;39536;52.198;9.920;2022-11-04T06:48:03;4.93;;;2.87;;
13967;SDS011;39536;52.198;9.920;2022-11-04T06:50:30;2.33;;;2.20;;
13967;SDS011;39536;52.198;9.920;2022-11-04T06:52:58;2.40;;;2.20;;
13967;SDS011;39536;52.198;9.920;2022-11-04T06:55:25;2.97;;;2.47;;
13967;SDS011;39536;52.198;9.920;2022-11-04T06:57:52;2.53;;;2.33;;
13967;SDS011;39536;52.198;9.920;2022-11-04T07:00:18;2.90;;;2.70;;
13967;SDS011;39536;52.198;9.920;2022-11-04T07:02:45;3.23;;;3.00;;
13967;SDS011;39536;52.198;9.920;2022-11-04T07:05:11;3.13;;;2.60;;
13967;SDS011;39536;52.198;9.920;2022-11-04T07:07:38;4.67;;;2.47;;
13967;SDS011;39536;52.198;9.920;2022-11-04T07:10:06;3.50;;;2.67;;
13967;SDS011;39536;52.198;9.920;2022-11-04T07:12:34;2.87;;;2.67;;
13967;SDS011;39536;52.198;9.920;2022-11-04T07:15:00;4.33;;;3.10;;
13967;SDS011;39536;52.198;9.920;2022-11-04T07:17:27;3.53;;;3.13;;
13967;SDS011;39536;52.198;9.920;2022-11-04T07:19:53;2.87;;;2.63;;
13967;SDS011;39536;52.198;9.920;2022-11-04T07:22:20;2.70;;;2.60;;
13967;SDS011;39536;52.198;9.920;2022-11-04T07:24:46;3.30;;;3.00;;
13967;SDS011;39536;52.198;9.920;2022-11-04T07:27:14;4.07;;;3.40;;
13967;SDS011;39536;52.198;9.920;2022-11-04T07:29:41;4.47;;;3.83;;
13967;SDS011;39536;52.198;9.920;2022-11-04T07:32:08;3.80;;;3.50;;
13967;SDS011;39536;52.198;9.920;2022-11-04T07:34:34;3.90;;;3.60;;
13967;SDS011;39536;52.198;9.920;2022-11-04T07:37:01;3.47;;;3.00;;
13967;SDS011;39536;52.198;9.920;2022-11-04T07:39:28;4.57;;;3.27;;
13967;SDS011;39536;52.198;9.920;2022-11-04T07:41:54;4.03;;;3.50;;
13967;SDS011;39536;52.198;9.920;2022-11-04T07:44:22;3.27;;;2.70;;
13967;SDS011;39536;52.198;9.920;2022-11-04T07:46:49;3.03;;;2.60;;
13967;SDS011;39536;52.198;9.920;2022-11-04T07:49:15;3.23;;;2.60;;
13967;SDS011;39536;52.198;9.920;2022-11-04T07:51:42;5.87;;;3.07;;
13967;SDS011;39536;52.198;9.920;2022-11-04T07:54:08;3.13;;;2.80;;
13967;SDS011;39536;52.198;9.920;2022-11-04T07:56:35;5.63;;;3.20;;
13967;SDS011;39536;52.198;9.920;2022-11-04T07:59:04;5.00;;;2.30;;
13967;SDS011;39536;52.198;9.920;2022-11-04T08:01:32;3.87;;;2.70;;
13967;SDS011;39536;52.198;9.920;2022-11-04T08:03:59;3.10;;;2.30;;
13967;SDS011;39536;52.198;9.920;2022-11-04T08:06:25;2.87;;;2.40;;
13967;SDS011;39536;52.198;9.920;2022-11-04T08:08:52;2.27;;;2.07;;
13967;SDS011;39536;52.198;9.920;2022-11-04T08:11:19;2.93;;;2.60;;
13967;SDS011;39536;52.198;9.920;2022-11-04T08:13:48;3.60;;;2.30;;
13967;SDS011;39536;52.198;9.920;2022-11-04T08:16:16;5.53;;;2.50;;
13967;SDS011;39536;52.198;9.920;2022-11-04T08:18:45;2.60;;;2.37;;
13967;SDS011;39536;52.198;9.920;2022-11-04T08:21:13;3.20;;;2.53;;
13967;SDS011;39536;52.198;9.920;2022-11-04T08:23:40;4.93;;;3.10;;
13967;SDS011;39536;52.198;9.920;2022-11-04T08:26:07;4.57;;;2.57;;
13967;SDS011;39536;52.198;9.920;2022-11-04T08:28:35;5.33;;;2.83;;
13967;SDS011;39536;52.198;9.920;2022-11-04T08:31:03;5.90;;;3.63;;
13967;SDS011;39536;52.198;9.920;2022-11-04T08:33:31;5.00;;;3.03;;
13967;SDS011;39536;52.198;9.920;2022-11-04T08:36:02;6.27;;;3.10;;
13967;SDS011;39536;52.198;9.920;2022-11-04T08:38:30;3.20;;;2.93;;
13967;SDS011;39536;52.198;9.920;2022-11-04T08:40:58;5.53;;;3.13;;
13967;SDS011;39536;52.198;9.920;2022-11-04T08:43:26;5.17;;;2.97;;
13967;SDS011;39536;52.198;9.920;2022-11-04T08:45:52;4.70;;;3.13;;
13967;SDS011;39536;52.198;9.920;2022-11-04T08:48:19;4.37;;;2.87;;
13967;SDS011;39536;52.198;9.920;2022-11-04T08:50:47;4.30;;;3.00;;
13967;SDS011;39536;52.198;9.920;2022-11-04T08:53:16;5.40;;;2.80;;
13967;SDS011;39536;52.198;9.920;2022-11-04T08:55:42;5.00;;;3.50;;
13967;SDS011;39536;52.198;9.920;2022-11-04T08:58:09;5.10;;;3.40;;
13967;SDS011;39536;52.198;9.920;2022-11-04T09:00:36;5.43;;;4.00;;
13967;SDS011;39536;52.198;9.920;2022-11-04T09:03:02;4.17;;;3.23;;
13967;SDS011;39536;52.198;9.920;2022-11-04T09:05:29;4.27;;;3.87;;
13967;SDS011;39536;52.198;9.920;2022-11-04T09:07:57;5.63;;;3.77;;
13967;SDS011;39536;52.198;9.920;2022-11-04T09:10:26;4.27;;;3.90;;
13967;SDS011;39536;52.198;9.920;2022-11-04T09:12:53;5.73;;;3.37;;
13967;SDS011;39536;52.198;9.920;2022-11-04T09:15:19;4.13;;;3.07;;
13967;SDS011;39536;52.198;9.920;2022-11-04T09:17:46;3.77;;;3.40;;
13967;SDS011;39536;52.198;9.920;2022-11-04T09:20:12;3.77;;;3.47;;
13967;SDS011;39536;52.198;9.920;2022-11-04T09:22:39;4.20;;;3.80;;
13967;SDS011;39536;52.198;9.920;2022-11-04T09:25:06;7.77;;;4.27;;
13967;SDS011;39536;52.198;9.920;2022-11-04T09:27:35;5.47;;;3.50;;
13967;SDS011;39536;52.198;9.920;2022-11-04T09:30:01;5.00;;;4.50;;
13967;SDS011;39536;52.198;9.920;2022-11-04T09:32:28;6.70;;;4.87;;
13967;SDS011;39536;52.198;9.920;2022-11-04T09:34:55;5.97;;;4.63;;
13967;SDS011;39536;52.198;9.920;2022-11-04T09:37:21;5.83;;;4.07;;
13967;SDS011;39536;52.198;9.920;2022-11-04T09:39:48;13.67;;;4.53;;
13967;SDS011;39536;52.198;9.920;2022-11-04T09:42:19;5.80;;;5.30;;
13967;SDS011;39536;52.198;9.920;2022-11-04T09:45:10;6.30;;;4.97;;
13967;SDS011;39536;52.198;9.920;2022-11-04T09:47:38;6.20;;;5.53;;
13967;SDS011;39536;52.198;9.920;2022-11-04T09:50:09;5.53;;;5.03;;
13967;SDS011;39536;52.198;9.920;2022-11-04T09:52:42;6.43;;;5.67;;
13967;SDS011;39536;52.198;9.920;2022-11-04T09:55:21;6.53;;;4.90;;
13967;SDS011;39536;52.198;9.920;2022-11-04T09:57:56;9.70;;;5.00;;
13967;SDS011;39536;52.198;9.920;2022-11-04T10:00:23;6.57;;;4.67;;
13967;SDS011;39536;52.198;9.920;2022-11-04T10:02:54;7.47;;;4.43;;
13967;SDS011;39536;52.198;9.920;2022-11-04T10:05:32;7.10;;;4.43;;
13967;SDS011;39536;52.198;9.920;2022-11-04T10:08:21;8.67;;;4.93;;
13967;SDS011;39536;52.198;9.920;2022-11-04T10:10:58;10.27;;;5.30;;
13967;SDS011;39536;52.198;9.920;2022-11-04T10:13:33;9.47;;;6.13;;
13967;SDS011;39536;52.198;9.920;2022-11-04T10:16:15;12.23;;;5.97;;
13967;SDS011;39536;52.198;9.920;2022-11-04T10:18:51;6.17;;;4.90;;
13967;SDS011;39536;52.198;9.920;2022-11-04T10:21:41;4.77;;;4.37;;
13967;SDS011;39536;52.198;9.920;2022-11-04T10:24:17;4.73;;;4.33;;
13967;SDS011;39536;52.198;9.920;2022-11-04T10:26:46;4.50;;;4.10;;
13967;SDS011;39536;52.198;9.920;2022-11-04T10:29:19;8.07;;;5.07;;
13967;SDS011;39536;52.198;9.920;2022-11-04T10:31:54;6.23;;;5.60;;
13967;SDS011;39536;52.198;9.920;2022-11-04T10:34:25;8.10;;;6.33;;
13967;SDS011;39536;52.198;9.920;2022-11-04T10:36:56;9.33;;;6.80;;
13967;SDS011;39536;52.198;9.920;2022-11-04T10:39:28;8.67;;;5.90;;
13967;SDS011;39536;52.198;9.920;2022-11-04T10:41:57;7.27;;;5.77;;
13967;SDS011;39536;52.198;9.920;2022-11-04T10:44:25;5.67;;;5.13;;
13967;SDS011;39536;52.198;9.920;2022-11-04T10:46:58;4.97;;;4.43;;
13967;SDS011;39536;52.198;9.920;2022-11-04T10:52:41;5.97;;;5.40;;
13967;SDS011;39536;52.198;9.920;2022-11-04T10:55:10;5.97;;;4.80;;
13967;SDS011;39536;52.198;9.920;2022-11-04T10:57:44;9.33;;;6.10;;
13967;SDS011;39536;52.198;9.920;2022-11-04T11:00:12;5.00;;;4.60;;
13967;SDS011;39536;52.198;9.920;2022-11-04T11:02:57;7.50;;;4.87;;
13967;SDS011;39536;52.198;9.920;2022-11-04T11:05:25;6.53;;;4.83;;
13967;SDS011;39536;52.198;9.920;2022-11-04T11:07:53;7.17;;;4.90;;
13967;SDS011;39536;52.198;9.920;2022-11-04T11:10:22;5.37;;;4.17;;
13967;SDS011;39536;52.198;9.920;2022-11-04T11:12:54;6.57;;;4.20;;
13967;SDS011;39536;52.198;9.920;2022-11-04T11:15:28;5.73;;;4.10;;
13967;SDS011;39536;52.198;9.920;2022-11-04T11:20:47;6.00;;;4.53;;
13967;SDS011;39536;52.198;9.920;2022-11-04T11:23:31;4.23;;;3.67;;
13967;SDS011;39536;52.198;9.920;2022-11-04T11:26:03;5.17;;;3.53;;
13967;SDS011;39536;52.198;9.920;2022-11-04T11:28:32;5.60;;;4.13;;
13967;SDS011;39536;52.198;9.920;2022-11-04T11:31:04;5.13;;;3.53;;
13967;SDS011;39536;52.198;9.920;2022-11-04T11:33:37;5.70;;;4.43;;
13967;SDS011;39536;52.198;9.920;2022-11-04T11:36:07;4.33;;;3.67;;
13967;SDS011;39536;52.198;9.920;2022-11-04T11:38:50;4.70;;;3.10;;
13967;SDS011;39536;52.198;9.920;2022-11-04T11:41:19;4.90;;;3.43;;
13967;SDS011;39536;52.198;9.920;2022-11-04T11:43:53;6.83;;;3.77;;
13967;SDS011;39536;52.198;9.920;2022-11-04T11:46:23;6.07;;;4.00;;
13967;SDS011;39536;52.198;9.920;2022-11-04T11:48:52;6.03;;;3.70;;
13967;SDS011;39536;52.198;9.920;2022-11-04T11:51:26;6.80;;;3.83;;
13967;SDS011;39536;52.198;9.920;2022-11-04T11:56:47;4.83;;;4.43;;
13967;SDS011;39536;52.198;9.920;2022-11-04T11:59:19;6.37;;;4.70;;
13967;SDS011;39536;52.198;9.920;2022-11-04T12:01:56;4.80;;;4.33;;
13967;SDS011;39536;52.198;9.920;2022-11-04T12:04:29;4.27;;;3.83;;
13967;SDS011;39536;52.198;9.920;2022-11-04T12:06:58;4.30;;;3.90;;
13967;SDS011;39536;52.198;9.920;2022-11-04T12:09:35;7.30;;;3.93;;
13967;SDS011;39536;52.198;9.920;2022-11-04T12:12:18;5.30;;;3.57;;
13967;SDS011;39536;52.198;9.920;2022-11-04T12:14:54;6.80;;;3.87;;
13967;SDS011;39536;52.198;9.920;2022-11-04T12:17:41;4.73;;;3.70;;
13967;SDS011;39536;52.198;9.920;2022-11-04T12:20:24;6.37;;;3.70;;
13967;SDS011;39536;52.198;9.920;2022-11-04T12:23:01;3.93;;;3.50;;
13967;SDS011;39536;52.198;9.920;2022-11-04T12:25:33;3.90;;;3.60;;
13967;SDS011;39536;52.198;9.920;2022-11-04T12:28:14;4.93;;;4.30;;
13967;SDS011;39536;52.198;9.920;2022-11-04T12:30:52;4.40;;;4.00;;
13967;SDS011;39536;52.198;9.920;2022-11-04T12:33:31;4.83;;;4.43;;
13967;SDS011;39536;52.198;9.920;2022-11-04T12:36:08;5.47;;;4.20;;
13967;SDS011;39536;52.198;9.920;2022-11-04T12:38:59;4.37;;;3.97;;
13967;SDS011;39536;52.198;9.920;2022-11-04T12:41:38;5.50;;;4.40;;
13967;SDS011;39536;52.198;9.920;2022-11-04T12:44:15;5.70;;;3.80;;
13967;SDS011;39536;52.198;9.920;2022-11-04T12:46:51;4.77;;;3.97;;
13967;SDS011;39536;52.198;9.920;2022-11-04T12:49:34;4.27;;;3.87;;
13967;SDS011;39536;52.198;9.920;2022-11-04T12:52:22;3.97;;;3.60;;
13967;SDS011;39536;52.198;9.920;2022-11-04T12:55:03;5.50;;;3.33;;
13967;SDS011;39536;52.198;9.920;2022-11-04T12:57:44;3.50;;;3.20;;
13967;SDS011;39536;52.198;9.920;2022-11-04T13:00:17;4.17;;;3.77;;
13967;SDS011;39536;52.198;9.920;2022-11-04T13:02:49;5.70;;;4.03;;
13967;SDS011;39536;52.198;9.920;2022-11-04T13:05:26;4.07;;;3.63;;
13967;SDS011;39536;52.198;9.920;2022-11-04T13:08:02;3.67;;;3.27;;
13967;SDS011;39536;52.198;9.920;2022-11-04T13:10:38;4.07;;;3.47;;
13967;SDS011;39536;52.198;9.920;2022-11-04T13:13:08;5.97;;;2.90;;
13967;SDS011;39536;52.198;9.920;2022-11-04T13:15:42;5.60;;;3.43;;
13967;SDS011;39536;52.198;9.920;2022-11-04T13:18:14;5.33;;;2.90;;
13967;SDS011;39536;52.198;9.920;2022-11-04T13:20:46;3.00;;;2.70;;
13967;SDS011;39536;52.198;9.920;2022-11-04T13:23:19;3.43;;;2.97;;
13967;SDS011;39536;52.198;9.920;2022-11-04T13:25:51;14.27;;;3.57;;
13967;SDS011;39536;52.198;9.920;2022-11-04T13:28:19;4.77;;;2.90;;
13967;SDS011;39536;52.198;9.920;2022-11-04T13:30:49;3.27;;;2.63;;
13967;SDS011;39536;52.198;9.920;2022-11-04T13:33:24;5.17;;;2.57;;
13967;SDS011;39536;52.198;9.920;2022-11-04T13:36:02;2.80;;;2.60;;
13967;SDS011;39536;52.198;9.920;2022-11-04T13:38:38;5.17;;;2.67;;
13967;SDS011;39536;52.198;9.920;2022-11-04T13:41:15;3.17;;;2.87;;
13967;SDS011;39536;52.198;9.920;2022-11-04T13:43:58;4.83;;;2.90;;
13967;SDS011;39536;52.198;9.920;2022-11-04T13:46:28;2.40;;;2.20;;
13967;SDS011;39536;52.198;9.920;2022-11-04T13:48:58;2.83;;;2.50;;
13967;SDS011;39536;52.198;9.920;2022-11-04T13:51:39;4.80;;;4.30;;
13967;SDS011;39536;52.198;9.920;2022-11-04T13:54:12;5.10;;;3.10;;
13967;SDS011;39536;52.198;9.920;2022-11-04T13:56:50;3.33;;;3.03;;
13967;SDS011;39536;52.198;9.920;2022-11-04T13:59:30;3.63;;;3.33;;
13967;SDS011;39536;52.198;9.920;2022-11-04T14:04:49;3.30;;;2.80;;
13967;SDS011;39536;52.198;9.920;2022-11-04T14:07:17;4.60;;;2.90;;
13967;SDS011;39536;52.198;9.920;2022-11-04T14:09:50;4.40;;;3.10;;
13967;SDS011;39536;52.198;9.920;2022-11-04T14:12:26;8.80;;;3.40;;
13967;SDS011;39536;52.198;9.920;2022-11-04T14:14:54;3.87;;;3.17;;
13967;SDS011;39536;52.198;9.920;2022-11-04T14:20:28;3.20;;;2.90;;
13967;SDS011;39536;52.198;9.920;2022-11-04T14:23:02;3.03;;;2.43;;
13967;SDS011;39536;52.198;9.920;2022-11-04T14:25:33;3.77;;;3.47;;
13967;SDS011;39536;52.198;9.920;2022-11-04T14:28:16;3.40;;;3.10;;
13967;SDS011;39536;52.198;9.920;2022-11-04T14:30:50;5.37;;;2.70;;
13967;SDS011;39536;52.198;9.920;2022-11-04T14:33:23;4.03;;;3.20;;
13967;SDS011;39536;52.198;9.920;2022-11-04T14:36:15;4.27;;;3.23;;
13967;SDS011;39536;52.198;9.920;2022-11-04T14:38:54;5.20;;;3.20;;
13967;SDS011;39536;52.198;9.920;2022-11-04T14:41:29;3.73;;;3.03;;
13967;SDS011;39536;52.198;9.920;2022-11-04T14:44:12;5.37;;;3.43;;
13967;SDS011;39536;52.198;9.920;2022-11-04T14:46:43;5.07;;;3.30;;
13967;SDS011;39536;52.198;9.920;2022-11-04T14:49:22;5.27;;;3.00;;
13967;SDS011;39536;52.198;9.920;2022-11-04T14:51:57;5.17;;;3.43;;
13967;SDS011;39536;52.198;9.920;2022-11-04T14:54:26;2.90;;;2.70;;
13967;SDS011;39536;52.198;9.920;2022-11-04T14:57:05;3.30;;;2.83;;
13967;SDS011;39536;52.198;9.920;2022-11-04T14:59:33;5.73;;;3.07;;
13967;SDS011;39536;52.198;9.920;2022-11-04T15:02:00;3.80;;;3.40;;
13967;SDS011;39536;52.198;9.920;2022-11-04T15:04:27;5.00;;;3.90;;
13967;SDS011;39536;52.198;9.920;2022-11-04T15:06:55;4.60;;;3.57;;
13967;SDS011;39536;52.198;9.920;2022-11-04T15:09:23;4.10;;;3.53;;
13967;SDS011;39536;52.198;9.920;2022-11-04T15:11:56;5.93;;;4.17;;
13967;SDS011;39536;52.198;9.920;2022-11-04T15:14:44;4.40;;;4.00;;
13967;SDS011;39536;52.198;9.920;2022-11-04T15:17:12;4.00;;;3.60;;
13967;SDS011;39536;52.198;9.920;2022-11-04T15:19:43;4.10;;;3.70;;
13967;SDS011;39536;52.198;9.920;2022-11-04T15:22:15;6.57;;;4.93;;
13967;SDS011;39536;52.198;9.920;2022-11-04T15:24:42;5.33;;;4.47;;
13967;SDS011;39536;52.198;9.920;2022-11-04T15:27:11;4.97;;;4.47;;
13967;SDS011;39536;52.198;9.920;2022-11-04T15:29:40;5.90;;;4.13;;